Terminal Aerodrome Forecast
Issued by NWS

Home | Current Version | Previous Version | Text Only | Print | Product List | Glossary On
Versions: 1 2 3 4 5 6 7 8 9 10 11 12 13 14
000
FTUS44 KOUN 171122
TAFGAG
TAF
KGAG 171122Z 1712/1812 06011KT P6SM BKN200
     FM171600 03012KT 6SM -RA BKN035 OVC060
     FM171800 03010KT 5SM -RA BKN030 OVC045
     FM172100 03008KT P6SM BKN035 BKN250=

USA.gov is the U.S. government's official web portal to all federal, state and local government web resources and services.